Time;durP1;ratioP1;P1;durP2;ratioP2;P2;SDS_P1;SDS_P2;PMS_P1;PMS_P2;Temp;Humidity;BMP_temperature;BMP_pressure;BME280_temperature;BME280_humidity;BME280_pressure;Samples;Min_cycle;Max_cycle;Signal;HPM_P1;HPM_P2
2022/01/16 00:06:38;;;;;;;30.92;10.32;;;;;;;-0.50;100.00;101674.95;4949319;58;1141261;-74
2022/01/16 00:11:44;;;;;;;36.90;11.57;;;;;;;-0.44;100.00;101667.91;5036311;58;1141321;-69
2022/01/16 00:16:50;;;;;;;27.90;9.37;;;;;;;-0.42;100.00;101663.56;5070741;58;1141100;-72
2022/01/16 00:21:57;;;;;;;35.10;11.77;;;;;;;-0.42;100.00;101666.16;5070747;58;1139166;-75
2022/01/16 00:27:03;;;;;;;15.43;6.90;;;;;;;-0.46;100.00;101651.95;5070940;58;1141109;-73
2022/01/16 00:32:09;;;;;;;24.47;9.00;;;;;;;-0.48;100.00;101659.77;5070799;58;1139364;-73
2022/01/16 00:37:15;;;;;;;41.80;11.53;;;;;;;-0.49;100.00;101656.75;5070443;58;1139016;-73
2022/01/16 00:42:21;;;;;;;35.50;8.50;;;;;;;-0.46;100.00;101626.80;5009165;58;1141141;-73
2022/01/16 00:47:27;;;;;;;25.70;8.97;;;;;;;-0.43;100.00;101619.40;4922064;59;1139442;-69
2022/01/16 00:52:33;;;;;;;23.40;7.00;;;;;;;-0.41;100.00;101621.54;4854304;60;1138995;-79
2022/01/16 00:57:39;;;;;;;31.83;11.17;;;;;;;-0.40;100.00;101615.46;4901348;58;1139235;-75
2022/01/16 01:02:46;;;;;;;33.17;11.67;;;;;;;-0.40;100.00;101646.65;4898554;60;1141443;-78
2022/01/16 01:07:52;;;;;;;31.23;10.30;;;;;;;-0.39;100.00;101627.14;4889707;60;1141489;-72
2022/01/16 01:18:15;;;;;;;28.03;11.23;;;;;;;-0.38;100.00;101624.09;4937631;58;1143118;-71
2022/01/16 01:23:21;;;;;;;28.27;8.10;;;;;;;-0.41;100.00;101613.30;4932024;58;1143149;-75
2022/01/16 01:28:27;;;;;;;37.23;10.57;;;;;;;-0.39;100.00;101606.78;4916366;59;1141186;-73
2022/01/16 01:33:33;;;;;;;21.33;8.73;;;;;;;-0.38;100.00;101609.80;4923478;58;1143371;-73
2022/01/16 01:38:39;;;;;;;27.87;9.37;;;;;;;-0.41;100.00;101600.31;4924955;58;1141092;-73
2022/01/16 01:54:16;;;;;;;34.78;10.58;;;;;;;-0.49;100.00;101538.52;4980148;59;1141202;-74
2022/01/16 01:59:22;;;;;;;35.33;12.27;;;;;;;-0.53;100.00;101500.91;4988349;59;1143428;-71
2022/01/16 02:04:28;;;;;;;36.73;10.53;;;;;;;-0.51;100.00;101466.66;4988346;59;1143344;-69
2022/01/16 02:09:34;;;;;;;30.93;8.43;;;;;;;-0.50;100.00;101512.11;4967641;59;1143294;-72
2022/01/16 02:14:59;;;;;;;16.57;5.85;;;;;;;-0.46;100.00;101529.34;4910062;60;1141231;-73
2022/01/16 02:31:16;;;;;;;21.80;6.73;;;;;;;-0.47;100.00;101487.83;4910038;60;1141203;-69
2022/01/16 02:36:34;;;;;;;23.40;7.27;;;;;;;-0.43;100.00;101495.52;4907762;60;1141160;-73
2022/01/16 02:41:26;;;;;;;18.15;6.45;;;;;;;-0.38;100.00;101508.00;4900827;60;1141101;-75
2022/01/16 02:51:37;;;;;;;27.20;7.50;;;;;;;-0.38;100.00;101516.24;4900753;60;1141361;-71
2022/01/16 02:56:45;;;;;;;29.57;8.70;;;;;;;-0.36;100.00;101521.84;4900710;60;1141138;-70
2022/01/16 03:01:51;;;;;;;28.00;6.03;;;;;;;-0.33;100.00;101505.34;4893498;60;1139115;-71
2022/01/16 03:07:04;;;;;;;22.03;6.70;;;;;;;-0.30;100.00;101490.97;4890637;60;1139106;-74
2022/01/16 03:12:10;;;;;;;35.67;9.87;;;;;;;-0.29;100.00;101482.73;4960544;59;1138980;-75
2022/01/16 03:17:37;;;;;;;33.83;7.70;;;;;;;-0.27;100.00;101467.52;4978911;59;1139155;-71
2022/01/16 03:22:31;;;;;;;28.35;7.62;;;;;;;-0.26;100.00;101463.19;4976688;59;1138991;-73
2022/01/16 03:27:38;;;;;;;27.13;6.53;;;;;;;-0.22;100.00;101454.02;4979044;59;1139195;-75
2022/01/16 03:32:44;;;;;;;25.77;7.57;;;;;;;-0.19;100.00;101438.80;4978931;59;1139085;-70
2022/01/16 03:37:49;;;;;;;22.87;7.57;;;;;;;-0.17;100.00;101428.80;4978881;59;1138967;-76
2022/01/16 03:43:03;;;;;;;23.17;6.57;;;;;;;-0.15;100.00;101418.34;4979099;59;1138916;-77
2022/01/16 03:48:02;;;;;;;31.67;7.87;;;;;;;-0.15;100.00;101402.74;4980994;59;1139060;-76
2022/01/16 03:53:08;;;;;;;33.30;6.73;;;;;;;-0.10;100.00;101402.22;4988272;59;1139053;-79
2022/01/16 03:58:14;;;;;;;35.93;7.70;;;;;;;-0.14;100.00;101391.02;4988389;59;1138974;-73
2022/01/16 04:03:20;;;;;;;29.65;9.08;;;;;;;-0.13;100.00;101360.67;4970007;58;1139304;-71
2022/01/16 04:08:26;;;;;;;30.77;6.03;;;;;;;-0.12;100.00;101360.65;4937553;58;1139018;-72
2022/01/16 04:13:32;;;;;;;30.50;8.37;;;;;;;-0.10;100.00;101354.98;4988976;59;1139013;-75
2022/01/16 04:18:38;;;;;;;35.13;8.05;;;;;;;-0.08;100.00;101347.15;4980183;59;1136976;-78
2022/01/16 04:23:44;;;;;;;28.67;8.45;;;;;;;-0.07;100.00;101341.06;4977871;59;1137000;-71
2022/01/16 04:28:50;;;;;;;29.93;8.00;;;;;;;-0.04;100.00;101343.61;4988885;59;1141188;-77
2022/01/16 04:33:55;;;;;;;28.50;7.37;;;;;;;-0.04;100.00;101326.70;4988849;59;1141035;-75
2022/01/16 04:39:01;;;;;;;39.07;8.30;;;;;;;-0.04;100.00;101328.86;4986079;59;1141112;-68
2022/01/16 04:44:08;;;;;;;31.52;6.97;;;;;;;-0.04;100.00;101327.56;4988837;59;1141073;-77
2022/01/16 04:49:14;;;;;;;29.37;5.77;;;;;;;0.00;100.00;101323.16;4973954;59;1141366;-75
2022/01/16 04:54:19;;;;;;;32.37;6.73;;;;;;;0.02;100.00;101314.86;4949181;59;1139091;-78
2022/01/16 04:59:25;;;;;;;39.00;8.23;;;;;;;0.00;100.00;101317.48;4948958;59;1139068;-76
2022/01/16 05:04:31;;;;;;;22.13;6.67;;;;;;;0.04;100.00;101323.48;4949148;59;1138752;-71
2022/01/16 05:09:37;;;;;;;33.67;7.90;;;;;;;0.06;100.00;101316.95;4968831;58;1139171;-77
2022/01/16 05:20:07;;;;;;;39.83;8.85;;;;;;;0.10;100.00;101299.10;5028883;58;1139113;-73
2022/01/16 05:25:15;;;;;;;29.00;9.13;;;;;;;0.12;100.00;101300.78;5021017;58;1139102;-70
2022/01/16 05:30:21;;;;;;;37.50;8.73;;;;;;;0.11;100.00;101286.51;5028684;58;1139021;-73
2022/01/16 05:35:27;;;;;;;32.83;9.10;;;;;;;0.10;100.00;101290.00;5018280;58;1139277;-72
2022/01/16 05:40:34;;;;;;;42.40;9.43;;;;;;;0.09;100.00;101281.34;5018409;58;1139095;-79
2022/01/16 05:45:40;;;;;;;41.43;12.50;;;;;;;0.13;100.00;101279.53;5018167;58;1139263;-72
2022/01/16 05:50:46;;;;;;;37.23;10.20;;;;;;;0.20;100.00;101257.67;5035992;58;1141081;-69
2022/01/16 05:55:52;;;;;;;37.63;11.13;;;;;;;0.20;100.00;101258.53;5050067;58;1140947;-68
2022/01/16 06:00:58;;;;;;;51.67;11.10;;;;;;;0.22;100.00;101249.39;5060618;58;1141140;-74
2022/01/16 06:06:05;;;;;;;41.80;10.77;;;;;;;0.22;100.00;101246.34;5051107;58;1141247;-74
2022/01/16 06:11:10;;;;;;;45.23;12.70;;;;;;;0.25;100.00;101249.33;5022246;58;1141142;-76
2022/01/16 06:16:16;;;;;;;50.47;12.90;;;;;;;0.26;100.00;101255.80;4991610;59;1141165;-74
2022/01/16 06:21:22;;;;;;;32.90;10.30;;;;;;;0.28;100.00;101251.87;5001251;59;1141174;-71
2022/01/16 06:26:28;;;;;;;32.70;7.83;;;;;;;0.27;100.00;101238.45;4992526;59;1141305;-76
2022/01/16 06:31:35;;;;;;;36.67;10.57;;;;;;;0.17;100.00;101220.03;5009408;59;1139050;-76
2022/01/16 06:36:42;;;;;;;29.57;7.83;;;;;;;0.19;100.00;101227.35;4991054;59;1141427;-77
2022/01/16 06:41:48;;;;;;;39.23;8.07;;;;;;;0.17;100.00;101227.38;5000864;59;1139008;-75
2022/01/16 06:46:53;;;;;;;36.47;7.77;;;;;;;0.14;100.00;101213.63;4990944;59;1139026;-74
2022/01/16 06:52:00;;;;;;;43.43;8.73;;;;;;;0.14;100.00;101209.72;4988822;59;1139212;-73
2022/01/16 06:57:06;;;;;;;30.60;8.47;;;;;;;0.15;100.00;101198.42;4970518;59;1139058;-73
2022/01/16 07:02:13;;;;;;;29.70;8.17;;;;;;;0.13;100.00;101184.60;4970434;59;1139194;-70
2022/01/16 07:07:18;;;;;;;24.80;7.50;;;;;;;0.12;100.00;101189.39;4970319;59;1139032;-74
2022/01/16 07:12:24;;;;;;;34.07;9.20;;;;;;;0.08;100.00;101189.91;5042418;58;1139055;-69
2022/01/16 07:17:31;;;;;;;35.27;9.27;;;;;;;0.09;100.00;101198.11;5059339;58;1139104;-77
2022/01/16 07:22:36;;;;;;;52.43;13.90;;;;;;;0.13;100.00;101200.20;5059259;58;1138941;-77
2022/01/16 07:27:43;;;;;;;85.87;23.30;;;;;;;0.14;100.00;101194.97;5059438;58;1141139;-69
2022/01/16 07:32:49;;;;;;;175.17;67.63;;;;;;;0.14;100.00;101194.12;5051294;58;1139189;-77
2022/01/16 07:37:55;;;;;;;36.07;12.10;;;;;;;0.15;100.00;101188.88;5059263;58;1141206;-70
2022/01/16 07:43:02;;;;;;;69.83;18.37;;;;;;;0.18;100.00;101183.58;5059518;58;1139013;-71
2022/01/16 07:48:09;;;;;;;93.40;26.03;;;;;;;0.19;100.00;101181.83;5058739;58;1139105;-75
2022/01/16 07:53:15;;;;;;;43.10;11.73;;;;;;;0.23;100.00;101183.03;4989739;58;1139011;-77
2022/01/16 07:58:21;;;;;;;76.10;20.03;;;;;;;0.29;100.00;101185.49;4911226;59;1138977;-75
2022/01/16 08:03:26;;;;;;;119.73;40.00;;;;;;;0.28;100.00;101183.78;4905675;58;1139053;-77
2022/01/16 08:08:32;;;;;;;315.63;141.47;;;;;;;0.28;100.00;101186.38;4931429;58;1141089;-79
2022/01/16 08:13:39;;;;;;;51.73;14.57;;;;;;;0.28;100.00;101185.08;4904178;59;1143232;-74
2022/01/16 08:18:44;;;;;;;36.30;10.40;;;;;;;0.27;100.00;101180.77;4933349;58;1139045;-74
2022/01/16 08:23:51;;;;;;;36.03;10.13;;;;;;;0.33;100.00;101166.73;4900221;59;1139211;-71
2022/01/16 08:28:57;;;;;;;31.53;9.10;;;;;;;0.38;100.00;101148.41;4947901;59;1138721;-74
2022/01/16 08:34:03;;;;;;;44.20;11.33;;;;;;;0.44;100.00;101150.42;4928039;59;1136899;-72
2022/01/16 08:39:08;;;;;;;82.33;19.40;;;;;;;0.46;100.00;101158.20;4897138;59;1139563;-69
2022/01/16 08:44:14;;;;;;;65.03;15.87;;;;;;;0.47;100.00;101155.97;4916628;59;1139120;-70
2022/01/16 08:49:20;;;;;;;114.47;40.93;;;;;;;0.46;100.00;101146.01;4920088;59;1139156;-74
2022/01/16 08:54:26;;;;;;;40.97;14.83;;;;;;;0.50;100.00;101131.17;4938774;59;1141345;-73
2022/01/16 08:59:32;;;;;;;38.47;11.67;;;;;;;0.50;100.00;101131.17;4951878;59;1139114;-71
2022/01/16 09:04:37;;;;;;;116.13;32.57;;;;;;;0.52;100.00;101113.33;4948462;59;1137194;-73
2022/01/16 09:09:43;;;;;;;27.23;7.60;;;;;;;0.55;100.00;101104.59;4974974;58;1139057;-71
2022/01/16 09:14:49;;;;;;;54.30;14.50;;;;;;;0.53;100.00;101090.77;4932760;58;1139120;-75
2022/01/16 09:19:56;;;;;;;57.97;20.60;;;;;;;0.56;100.00;101085.03;4891055;60;1141164;-73
2022/01/16 09:25:01;;;;;;;36.97;9.13;;;;;;;0.61;100.00;101071.91;4890950;59;1141229;-73
2022/01/16 09:30:09;;;;;;;73.37;16.10;;;;;;;0.67;100.00;101075.62;4812694;60;1139560;-72
2022/01/16 09:35:15;;;;;;;72.67;18.73;;;;;;;0.68;100.00;101065.16;4891312;60;1141242;-71
2022/01/16 09:40:23;;;;;;;66.83;16.87;;;;;;;0.73;100.00;101060.28;4887203;59;1141316;-74
2022/01/16 09:45:28;;;;;;;72.17;18.03;;;;;;;0.78;100.00;101059.23;4880624;60;1141441;-73
2022/01/16 09:50:35;;;;;;;73.50;19.27;;;;;;;0.82;100.00;101052.20;4880209;59;1141119;-73
2022/01/16 09:55:43;;;;;;;66.47;18.07;;;;;;;0.85;100.00;101039.09;4926968;58;1141544;-71
2022/01/16 10:00:52;;;;;;;44.87;12.93;;;;;;;0.89;100.00;101040.27;4938303;59;1141483;-77
2022/01/16 10:06:20;;;;;;;63.83;20.37;;;;;;;0.96;100.00;101027.91;4919605;58;1141126;-78
2022/01/16 10:11:39;;;;;;;48.97;14.03;;;;;;;0.97;100.00;101012.69;4943463;58;1141397;-72
2022/01/16 10:16:44;;;;;;;47.85;15.08;;;;;;;0.98;100.00;100989.20;4944941;58;1140994;-75
2022/01/16 10:21:51;;;;;;;40.88;13.25;;;;;;;1.02;100.00;100990.82;4962934;59;1141112;-77
2022/01/16 10:27:17;;;;;;;59.97;17.30;;;;;;;1.07;100.00;100988.05;4891231;59;1141091;-74
2022/01/16 10:32:29;;;;;;;103.17;32.47;;;;;;;1.10;100.00;100985.36;4894830;58;1141680;-76
2022/01/16 10:37:37;;;;;;;104.13;32.80;;;;;;;1.15;100.00;100974.36;4928910;58;1143435;-71
2022/01/16 10:42:47;;;;;;;386.75;100.95;;;;;;;1.20;100.00;100964.66;4915091;58;1143476;-77
2022/01/16 10:47:56;;;;;;;61.40;19.00;;;;;;;1.23;100.00;100958.47;4928776;58;1145246;-72
2022/01/16 10:53:19;;;;;;;75.73;22.53;;;;;;;1.25;100.00;100943.19;4926042;58;1141357;-73
2022/01/16 10:58:47;;;;;;;38.25;13.90;;;;;;;1.27;100.00;100934.88;4910647;58;1141128;-73
2022/01/16 11:03:53;;;;;;;115.00;36.25;;;;;;;1.28;100.00;100913.13;4885947;59;1138972;-73
2022/01/16 11:09:03;;;;;;;66.97;22.43;;;;;;;1.35;100.00;100897.71;4957044;58;1141194;-75
2022/01/16 11:14:07;;;;;;;54.60;19.98;;;;;;;1.41;100.00;100883.59;4931175;58;1139335;-73
2022/01/16 11:19:15;;;;;;;67.00;19.57;;;;;;;1.49;100.00;100872.48;4933717;59;1139234;-76
2022/01/16 11:24:46;;;;;;;49.05;19.57;;;;;;;1.53;100.00;100854.98;4946571;58;1139124;-73
2022/01/16 11:29:42;;;;;;;44.30;15.30;;;;;;;1.59;100.00;100862.12;4918381;58;1138838;-73
2022/01/16 11:34:48;;;;;;;41.90;16.53;;;;;;;1.64;100.00;100847.17;4852064;60;1139064;-74
2022/01/16 11:39:54;;;;;;;39.57;14.73;;;;;;;1.67;100.00;100841.86;4891619;60;1138930;-70
2022/01/16 11:45:00;;;;;;;49.10;20.07;;;;;;;1.67;100.00;100831.43;4899669;59;1139537;-72
2022/01/16 11:50:10;;;;;;;43.37;18.03;;;;;;;1.70;100.00;100819.56;4965306;59;1139316;-77
2022/01/16 11:55:16;;;;;;;201.07;110.73;;;;;;;1.72;100.00;100819.52;4968233;59;1137401;-68
2022/01/16 12:00:22;;;;;;;55.80;22.90;;;;;;;1.78;100.00;100808.02;4973063;59;1145166;-74
2022/01/16 12:05:30;;;;;;;72.83;17.67;;;;;;;1.86;100.00;100793.77;4963844;59;1140920;-77
2022/01/16 12:10:42;;;;;;;54.38;19.73;;;;;;;1.96;100.00;100791.23;4965570;59;1141023;-71
2022/01/16 12:15:48;;;;;;;74.03;21.42;;;;;;;2.00;100.00;100788.88;4877736;59;1141068;-81
2022/01/16 12:20:54;;;;;;;64.17;20.20;;;;;;;2.02;100.00;100774.03;4787343;60;1141872;-78
2022/01/16 12:26:00;;;;;;;82.43;25.60;;;;;;;1.94;100.00;100770.03;4795755;60;1141115;-81
2022/01/16 12:31:08;;;;;;;51.47;18.10;;;;;;;1.95;100.00;100756.08;4813406;60;1141412;-80
2022/01/16 12:36:24;;;;;;;51.00;19.47;;;;;;;1.91;100.00;100748.82;4910575;60;1141042;-83
2022/01/16 12:41:41;;;;;;;100.47;33.43;;;;;;;1.90;100.00;100739.30;4924124;59;1141067;-80
2022/01/16 12:46:54;;;;;;;57.03;20.60;;;;;;;1.94;100.00;100734.81;4880842;60;1143416;-80
2022/01/16 12:52:00;;;;;;;140.88;58.28;;;;;;;1.97;100.00;100724.27;4916146;60;1141515;-78
2022/01/16 12:57:06;;;;;;;72.33;30.03;;;;;;;2.03;100.00;100732.69;4919829;59;1143521;-84
2022/01/16 13:02:13;;;;;;;141.77;46.97;;;;;;;2.06;100.00;100733.88;4900202;59;1141309;-81
2022/01/16 13:07:18;;;;;;;86.03;25.53;;;;;;;2.07;100.00;100729.06;4893162;59;1143227;-78
2022/01/16 13:12:24;;;;;;;67.93;24.23;;;;;;;2.06;100.00;100726.05;5013626;58;1141083;-80
2022/01/16 13:17:33;;;;;;;54.83;19.73;;;;;;;2.02;100.00;100721.86;4928632;58;1141048;-79
2022/01/16 13:22:39;;;;;;;54.00;23.60;;;;;;;2.02;100.00;100714.03;4922999;58;1141076;-78
2022/01/16 13:27:46;;;;;;;66.23;23.23;;;;;;;2.00;100.00;100717.16;4844500;59;1141551;-78
2022/01/16 13:32:52;;;;;;;60.00;22.40;;;;;;;1.99;100.00;100724.58;4951349;59;1141105;-79
2022/01/16 13:38:08;;;;;;;133.63;48.93;;;;;;;1.99;100.00;100718.52;4948640;58;1141289;-81
2022/01/16 13:43:16;;;;;;;238.77;81.17;;;;;;;1.93;100.00;100720.08;4929685;58;1143224;-78
2022/01/16 13:48:26;;;;;;;105.23;36.57;;;;;;;1.85;100.00;100707.31;4939141;59;1143219;-79
2022/01/16 13:53:39;;;;;;;45.37;18.53;;;;;;;1.81;100.00;100692.72;4941948;59;1143251;-81
2022/01/16 13:58:49;;;;;;;49.00;18.37;;;;;;;1.76;100.00;100708.53;4949821;59;1141134;-78
2022/01/16 14:04:01;;;;;;;52.07;18.53;;;;;;;1.69;100.00;100700.98;4969607;59;1141377;-79
2022/01/16 14:09:08;;;;;;;48.67;21.77;;;;;;;1.66;100.00;100702.44;4969585;59;1139192;-80
2022/01/16 14:14:18;;;;;;;73.60;28.27;;;;;;;1.65;100.00;100684.64;4849739;60;1139139;-79
2022/01/16 14:24:56;;;;;;;54.70;20.23;;;;;;;1.58;100.00;100693.59;4864343;59;1138977;-80
2022/01/16 14:30:09;;;;;;;51.57;19.20;;;;;;;1.55;100.00;100695.45;4970349;59;1139303;-81
2022/01/16 14:35:14;;;;;;;;;;;;;;;1.56;100.00;100694.09;4973897;59;1139234;-81
2022/01/16 14:40:20;;;;;;;183.07;81.13;;;;;;;1.59;100.00;100704.86;4895546;60;972537;-81
2022/01/16 14:45:26;;;;;;;62.47;23.03;;;;;;;1.55;100.00;100695.45;4931561;58;1139022;-81
2022/01/16 14:50:33;;;;;;;68.07;26.07;;;;;;;1.58;100.00;100697.95;4947539;59;1139383;-80
2022/01/16 14:55:39;;;;;;;49.13;19.40;;;;;;;1.57;100.00;100693.19;4978852;59;1139270;-82
2022/01/16 15:00:45;;;;;;;60.10;23.57;;;;;;;1.59;100.00;100686.62;4952410;59;1139016;-81
2022/01/16 15:05:51;;;;;;;38.67;14.70;;;;;;;1.61;100.00;100701.30;4948884;59;1136885;-80
2022/01/16 15:10:57;;;;;;;34.50;11.77;;;;;;;1.60;100.00;100705.27;4911731;59;1136924;-80
2022/01/16 15:16:03;;;;;;;40.13;15.10;;;;;;;1.58;100.00;100710.53;4949156;59;1141134;-79
2022/01/16 15:21:10;;;;;;;37.80;13.00;;;;;;;1.59;100.00;100716.14;4949200;59;1141215;-84
2022/01/16 15:26:16;;;;;;;26.13;12.10;;;;;;;1.59;100.00;100725.27;4933336;59;1141027;-83
2022/01/16 15:31:22;;;;;;;40.28;14.93;;;;;;;1.56;100.00;100731.89;4901581;59;1141097;-83
2022/01/16 15:36:30;;;;;;;27.30;12.27;;;;;;;1.55;100.00;100735.85;4907570;59;1141063;-82
2022/01/16 15:41:35;;;;;;;34.17;15.53;;;;;;;1.54;100.00;100744.58;4895203;59;1141186;-81
2022/01/16 15:46:41;;;;;;;24.43;11.57;;;;;;;1.53;100.00;100737.70;4922787;59;1141135;-83
2022/01/16 15:51:47;;;;;;;30.50;14.33;;;;;;;1.52;100.00;100739.45;4909045;59;1141047;-77
2022/01/16 15:56:54;;;;;;;27.60;13.07;;;;;;;1.53;100.00;100759.36;4944474;59;1141136;-82
2022/01/16 16:02:00;;;;;;;31.50;12.47;;;;;;;1.53;100.00;100745.52;4893956;59;1141192;-77
2022/01/16 16:07:06;;;;;;;23.30;9.83;;;;;;;1.49;100.00;100760.41;4737901;62;1141256;-78
2022/01/16 16:12:11;;;;;;;38.53;15.95;;;;;;;1.46;100.00;100754.45;4797971;61;1139062;-70
2022/01/16 16:17:17;;;;;;;38.47;19.97;;;;;;;1.36;100.00;100756.55;4792391;61;1141119;-72
2022/01/16 16:22:25;;;;;;;37.70;17.87;;;;;;;1.37;100.00;100753.89;4792931;61;1141096;-77
2022/01/16 16:27:31;;;;;;;25.13;13.97;;;;;;;1.35;100.00;100748.33;4803159;61;1141166;-81
2022/01/16 16:32:37;;;;;;;37.10;12.00;;;;;;;1.31;100.00;100751.49;4803027;61;1141116;-73
2022/01/16 16:37:44;;;;;;;186.43;60.60;;;;;;;1.27;100.00;100765.98;4796314;61;1141181;-76
2022/01/16 16:42:50;;;;;;;91.57;32.33;;;;;;;1.14;100.00;100737.36;4792061;61;1143211;-81
2022/01/16 16:47:56;;;;;;;91.40;40.40;;;;;;;1.14;100.00;100737.36;4791943;61;1141245;-79
2022/01/16 16:53:04;;;;;;;50.70;19.13;;;;;;;1.14;100.00;100751.23;4791941;61;1141074;-76
2022/01/16 16:58:09;;;;;;;46.97;21.63;;;;;;;1.04;100.00;100751.17;4804821;60;1141084;-77
2022/01/16 17:03:16;;;;;;;30.00;12.87;;;;;;;1.00;100.00;100750.87;4775502;61;1141149;-77
2022/01/16 17:08:21;;;;;;;26.43;11.57;;;;;;;0.94;100.00;100737.59;4805055;61;1141154;-80
2022/01/16 17:13:27;;;;;;;24.67;10.67;;;;;;;0.88;100.00;100730.02;4808816;61;1141321;-76
2022/01/16 17:18:35;;;;;;;35.30;13.07;;;;;;;0.83;100.00;100726.70;4947386;58;1141050;-77
2022/01/16 17:23:41;;;;;;;33.47;14.03;;;;;;;0.79;100.00;100726.41;4950201;58;1141316;-74
2022/01/16 17:28:46;;;;;;;35.05;14.85;;;;;;;0.80;100.00;100733.77;4947786;59;1141366;-84
2022/01/16 17:33:52;;;;;;;33.10;13.50;;;;;;;0.81;100.00;100714.64;4889094;60;1141154;-78
2022/01/16 17:38:58;;;;;;;38.08;14.28;;;;;;;0.83;100.00;100731.06;4902080;59;1141210;-73
2022/01/16 17:44:04;;;;;;;45.50;19.97;;;;;;;0.85;100.00;100732.72;4925916;58;1141131;-82
2022/01/16 17:49:10;;;;;;;28.90;12.40;;;;;;;0.86;100.00;100726.61;4918867;58;1141197;-70
2022/01/16 17:54:16;;;;;;;80.77;25.30;;;;;;;0.88;100.00;100732.62;4937529;58;1141039;-84
2022/01/16 17:59:22;;;;;;;97.50;33.27;;;;;;;0.95;100.00;100722.38;4926528;59;1140575;-75
2022/01/16 18:04:27;;;;;;;112.63;32.17;;;;;;;1.00;100.00;100728.73;4822019;60;1141078;-78
2022/01/16 18:09:34;;;;;;;84.70;20.30;;;;;;;1.03;100.00;100724.27;4943464;58;1143145;-76
2022/01/16 18:14:41;;;;;;;149.07;36.27;;;;;;;1.07;100.00;100720.27;4843474;60;1141326;-73
2022/01/16 18:19:46;;;;;;;40.77;15.27;;;;;;;1.08;100.00;100707.61;4949684;58;1143190;-71
2022/01/16 18:24:54;;;;;;;99.43;27.97;;;;;;;1.13;100.00;100704.40;4835103;61;1141386;-79
2022/01/16 18:29:59;;;;;;;45.03;16.33;;;;;;;1.18;100.00;100711.61;4887288;59;1139115;-80
2022/01/16 18:35:09;;;;;;;71.53;24.13;;;;;;;1.21;100.00;100721.92;4931267;59;1139019;-74
2022/01/16 18:40:15;;;;;;;31.10;12.77;;;;;;;1.25;100.00;100719.13;4822621;60;1139140;-77
2022/01/16 18:45:22;;;;;;;55.08;18.77;;;;;;;1.29;100.00;100705.09;4969651;58;1139003;-79
2022/01/16 18:50:34;;;;;;;48.23;17.00;;;;;;;1.37;100.00;100690.50;4892009;59;1139021;-71
2022/01/16 18:55:35;;;;;;;129.97;48.45;;;;;;;1.37;100.00;100690.50;4888661;60;1139044;-83
2022/01/16 19:00:43;;;;;;;130.30;50.83;;;;;;;1.40;100.00;100673.42;4885633;59;1141606;-80
2022/01/16 19:05:51;;;;;;;108.67;27.73;;;;;;;1.44;100.00;100672.41;4930151;59;1141124;-78
2022/01/16 19:10:59;;;;;;;69.92;19.27;;;;;;;1.49;100.00;100673.09;4919450;59;1141196;-70
2022/01/16 19:16:05;;;;;;;63.13;18.73;;;;;;;1.53;100.00;100663.41;4944421;58;1139010;-79
2022/01/16 19:21:10;;;;;;;33.13;14.20;;;;;;;1.55;100.00;100670.23;4945288;58;1138995;-75
2022/01/16 19:26:17;;;;;;;54.63;17.60;;;;;;;1.61;100.00;100670.47;4926674;58;1139285;-71
2022/01/16 19:31:23;;;;;;;33.33;13.40;;;;;;;1.64;100.00;100679.03;4934409;58;1139026;-73
2022/01/16 19:36:30;;;;;;;32.33;14.13;;;;;;;1.70;100.00;100689.20;4929883;58;1139109;-78
2022/01/16 19:41:44;;;;;;;36.40;17.30;;;;;;;1.72;100.00;100696.52;4920379;58;1139034;-77
2022/01/16 19:46:44;;;;;;;44.33;20.37;;;;;;;1.79;100.00;100684.10;4915334;58;1139078;-73
2022/01/16 19:51:49;;;;;;;42.60;16.33;;;;;;;1.84;100.00;100673.02;4931303;59;1136969;-77
2022/01/16 19:56:55;;;;;;;42.97;19.47;;;;;;;1.89;100.00;100672.39;4920081;58;1136993;-77
2022/01/16 20:02:01;;;;;;;39.90;16.77;;;;;;;1.93;100.00;100672.67;4941304;59;1141030;-74
2022/01/16 20:07:07;;;;;;;25.17;12.23;;;;;;;1.95;100.00;100673.92;4950298;59;1141310;-73
2022/01/16 20:12:12;;;;;;;31.20;15.60;;;;;;;2.00;100.00;100666.29;4949353;58;1150984;-79
2022/01/16 20:17:18;;;;;;;32.77;15.43;;;;;;;2.01;100.00;100657.55;4930648;59;1141199;-76
2022/01/16 20:22:24;;;;;;;36.67;19.37;;;;;;;2.03;100.00;100660.95;4937368;59;1141163;-79
2022/01/16 20:27:30;;;;;;;246.37;124.87;;;;;;;2.06;100.00;100667.81;4931442;59;1141162;-74
2022/01/16 20:32:36;;;;;;;112.77;33.80;;;;;;;2.09;100.00;100675.07;4931567;59;1145353;-83
2022/01/16 20:37:43;;;;;;;35.53;14.23;;;;;;;2.13;100.00;100660.15;4899247;59;1143315;-78
2022/01/16 20:42:48;;;;;;;38.43;16.97;;;;;;;2.16;100.00;100668.28;4814513;60;1141131;-74
2022/01/16 20:47:57;;;;;;;41.20;17.53;;;;;;;2.19;100.00;100670.77;4803964;60;1141342;-75
2022/01/16 20:53:03;;;;;;;33.97;15.67;;;;;;;2.23;100.00;100672.35;4877802;60;1141226;-83
2022/01/16 20:58:11;;;;;;;44.60;20.70;;;;;;;2.25;100.00;100668.77;4840755;60;1141125;-83
2022/01/16 21:03:17;;;;;;;49.57;17.73;;;;;;;2.29;100.00;100656.45;4796266;61;1141116;-75
2022/01/16 21:08:24;;;;;;;43.13;19.93;;;;;;;2.32;100.00;100653.23;4781459;60;1141112;-78
2022/01/16 21:13:30;;;;;;;37.60;16.07;;;;;;;2.35;100.00;100653.58;4873663;60;1141246;-82
2022/01/16 21:18:36;;;;;;;47.87;20.67;;;;;;;2.38;100.00;100651.69;4873480;60;1141105;-77
2022/01/16 21:23:41;;;;;;;35.23;17.10;;;;;;;2.42;100.00;100651.11;4874209;60;1141095;-80
2022/01/16 21:28:47;;;;;;;42.33;18.10;;;;;;;2.45;100.00;100654.42;4872917;60;1141162;-80
2022/01/16 21:33:53;;;;;;;33.17;17.10;;;;;;;2.51;100.00;100641.58;4873316;60;1141515;-78
2022/01/16 21:38:59;;;;;;;35.73;15.17;;;;;;;2.56;100.00;100625.73;4873456;60;1141224;-75
2022/01/16 21:44:05;;;;;;;42.97;16.90;;;;;;;2.59;100.00;100618.62;4873054;60;1141206;-71
2022/01/16 21:49:11;;;;;;;40.83;17.48;;;;;;;2.65;100.00;100619.64;4872991;60;1141344;-73
2022/01/16 21:54:18;;;;;;;37.53;17.90;;;;;;;2.68;100.00;100595.16;4873152;60;1141500;-82
2022/01/16 21:59:24;;;;;;;43.87;20.00;;;;;;;2.75;100.00;100590.08;4873213;60;1141272;-76
2022/01/16 22:04:32;;;;;;;41.30;20.57;;;;;;;2.80;100.00;100601.14;4927575;58;1141227;-82
2022/01/16 22:09:37;;;;;;;35.97;17.67;;;;;;;2.88;100.00;100587.30;5027782;58;1141219;-76
2022/01/16 22:14:42;;;;;;;51.20;20.47;;;;;;;2.95;100.00;100597.84;4989918;59;1141166;-81
2022/01/16 22:19:49;;;;;;;45.80;18.07;;;;;;;3.01;100.00;100587.13;4989806;59;1141149;-81
2022/01/16 22:24:55;;;;;;;34.83;16.07;;;;;;;3.05;100.00;100580.02;4989790;59;1141163;-74
2022/01/16 22:30:01;;;;;;;34.43;17.47;;;;;;;3.09;100.00;100589.38;4990507;59;1141053;-75
2022/01/16 22:35:07;;;;;;;39.03;19.37;;;;;;;3.15;100.00;100586.05;4991609;59;1141084;-78
2022/01/16 22:40:14;;;;;;;46.43;18.87;;;;;;;3.20;100.00;100569.31;4991936;59;1141039;-80
2022/01/16 22:45:20;;;;;;;40.67;16.87;;;;;;;3.23;100.00;100554.77;5000762;59;1141126;-69
2022/01/16 22:50:27;;;;;;;34.15;15.70;;;;;;;3.29;100.00;100557.11;5000579;59;1141198;-72
2022/01/16 22:55:32;;;;;;;38.40;17.93;;;;;;;3.31;100.00;100542.20;5000980;58;1140662;-72
2022/01/16 23:00:38;;;;;;;40.85;17.77;;;;;;;3.34;100.00;100532.92;5000697;59;1141084;-76
2022/01/16 23:05:44;;;;;;;43.03;20.00;;;;;;;3.35;100.00;100523.70;4989293;59;1141053;-77
2022/01/16 23:10:50;;;;;;;39.20;14.13;;;;;;;3.42;100.00;100509.40;5013875;58;1141088;-75
2022/01/16 23:15:56;;;;;;;34.93;14.97;;;;;;;3.45;100.00;100507.95;5048540;58;1141302;-80
2022/01/16 23:21:01;;;;;;;40.53;13.63;;;;;;;3.50;100.00;100507.73;5048477;58;1139132;-77
2022/01/16 23:26:07;;;;;;;34.27;14.90;;;;;;;3.50;100.00;100476.36;5041163;58;1139018;-70
2022/01/16 23:31:12;;;;;;;30.90;13.07;;;;;;;3.58;100.00;100466.35;4985485;58;1139015;-67